COOK73 HTMW-FZWA
Flight info
| Callsign | COOK73 |
|---|---|
| Flight time | 1h 51m |
| Altitude | 20000 |
| Route | IBGEN UM306 EBREL DCT INADO INADO1B |
| Aircraft | C25C/M-SDE2E3FGHRWXY/LB1 |
Departure
| Time | 2026-05-08 00:07 |
|---|---|
| Airport | Mwanza International Airport (HTMW) |
Arrival
| Time | 2026-05-08 01:59 |
|---|---|
| Airport | Mbuji Mayi Airport (FZWA) |
| Time | Latitude | Longitude | Altitude | Speed | Heading |
|---|---|---|---|---|---|
| 2026-05-07 23:49 | -2.44267 | 32.92408 | 3735 ft | 0 kts | 203° |
| 2026-05-07 23:59 | -2.44272 | 32.92406 | 3735 ft | 1 kts | 195° |
| 2026-05-07 23:59 | -2.44289 | 32.92418 | 3735 ft | 7 kts | 119° |
| 2026-05-07 23:59 | -2.44327 | 32.92484 | 3735 ft | 15 kts | 120° |
| 2026-05-08 00:00 | -2.44354 | 32.92540 | 3735 ft | 1 kts | 72° |
| 2026-05-08 00:00 | -2.44345 | 32.92566 | 3735 ft | 0 kts | 73° |
| 2026-05-08 00:02 | -2.44345 | 32.92567 | 3733 ft | 1 kts | 71° |
| 2026-05-08 00:03 | -2.44329 | 32.92567 | 3734 ft | 6 kts | 345° |
| 2026-05-08 00:03 | -2.44265 | 32.92581 | 3735 ft | 11 kts | 27° |
| 2026-05-08 00:03 | -2.44202 | 32.92613 | 3735 ft | 9 kts | 26° |
| 2026-05-08 00:03 | -2.44147 | 32.92634 | 3735 ft | 8 kts | 354° |
| 2026-05-08 00:04 | -2.44116 | 32.92600 | 3735 ft | 6 kts | 297° |
| 2026-05-08 00:04 | -2.44096 | 32.92561 | 3736 ft | 7 kts | 296° |
| 2026-05-08 00:04 | -2.44076 | 32.92520 | 3736 ft | 7 kts | 295° |
| 2026-05-08 00:04 | -2.44054 | 32.92473 | 3736 ft | 8 kts | 297° |
| 2026-05-08 00:05 | -2.44025 | 32.92418 | 3737 ft | 12 kts | 297° |
| 2026-05-08 00:05 | -2.43981 | 32.92330 | 3734 ft | 14 kts | 297° |
| 2026-05-08 00:05 | -2.43937 | 32.92244 | 3735 ft | 13 kts | 297° |
| 2026-05-08 00:05 | -2.43896 | 32.92165 | 3734 ft | 12 kts | 303° |
| 2026-05-08 00:06 | -2.43864 | 32.92123 | 3735 ft | 6 kts | 284° |
| 2026-05-08 00:06 | -2.43878 | 32.92113 | 3735 ft | 1 kts | 127° |
| 2026-05-08 00:06 | -2.43882 | 32.92131 | 3735 ft | 5 kts | 106° |
| 2026-05-08 00:06 | -2.43884 | 32.92136 | 3735 ft | 0 kts | 113° |
| 2026-05-08 00:07 | -2.43889 | 32.92147 | 3735 ft | 12 kts | 113° |
| 2026-05-08 00:07 | -2.44047 | 32.92465 | 3736 ft | 95 kts | 116° |
| 2026-05-08 00:07 | -2.44365 | 32.93177 | 4272 ft | 115 kts | 110° |
| 2026-05-08 00:07 | -2.44725 | 32.94054 | 4679 ft | 149 kts | 110° |
| 2026-05-08 00:08 | -2.45182 | 32.95108 | 5216 ft | 183 kts | 125° |
| 2026-05-08 00:08 | -2.46279 | 32.95916 | 5743 ft | 213 kts | 156° |
| 2026-05-08 00:08 | -2.47774 | 32.96021 | 6597 ft | 221 kts | 192° |
| 2026-05-08 00:08 | -2.49092 | 32.95276 | 7575 ft | 223 kts | 227° |
| 2026-05-08 00:09 | -2.49750 | 32.93873 | 8502 ft | 230 kts | 263° |
| 2026-05-08 00:09 | -2.49754 | 32.92259 | 9425 ft | 235 kts | 270° |
| 2026-05-08 00:09 | -2.49672 | 32.90612 | 10307 ft | 239 kts | 272° |
| 2026-05-08 00:09 | -2.49587 | 32.88943 | 11197 ft | 242 kts | 271° |
| 2026-05-08 00:10 | -2.49521 | 32.87253 | 12047 ft | 245 kts | 271° |
| 2026-05-08 00:10 | -2.49461 | 32.85543 | 12869 ft | 248 kts | 271° |
| 2026-05-08 00:10 | -2.49397 | 32.83811 | 13688 ft | 251 kts | 271° |
| 2026-05-08 00:10 | -2.49327 | 32.82054 | 14420 ft | 254 kts | 271° |
| 2026-05-08 00:11 | -2.49261 | 32.80274 | 15129 ft | 258 kts | 272° |
| 2026-05-08 00:11 | -2.49192 | 32.78470 | 15841 ft | 261 kts | 272° |
| 2026-05-08 00:11 | -2.49121 | 32.76643 | 16561 ft | 264 kts | 273° |
| 2026-05-08 00:11 | -2.49051 | 32.74799 | 17270 ft | 267 kts | 273° |
| 2026-05-08 00:12 | -2.48982 | 32.72931 | 17971 ft | 270 kts | 272° |
| 2026-05-08 00:12 | -2.49211 | 32.71061 | 18607 ft | 274 kts | 256° |
| 2026-05-08 00:12 | -2.49701 | 32.69206 | 19198 ft | 277 kts | 256° |
| 2026-05-08 00:12 | -2.50192 | 32.67358 | 19786 ft | 280 kts | 256° |
| 2026-05-08 00:13 | -2.50687 | 32.65418 | 20015 ft | 300 kts | 256° |
| 2026-05-08 00:13 | -2.51217 | 32.63308 | 20030 ft | 325 kts | 256° |
| 2026-05-08 00:13 | -2.51797 | 32.61040 | 20033 ft | 348 kts | 256° |
| 2026-05-08 00:13 | -2.52414 | 32.58620 | 20026 ft | 368 kts | 256° |
| 2026-05-08 00:14 | -2.53066 | 32.56084 | 20026 ft | 384 kts | 256° |
| 2026-05-08 00:14 | -2.53729 | 32.53458 | 20022 ft | 393 kts | 256° |
| 2026-05-08 00:14 | -2.54416 | 32.50780 | 20015 ft | 402 kts | 256° |
| 2026-05-08 00:14 | -2.55113 | 32.48046 | 20016 ft | 409 kts | 256° |
| 2026-05-08 00:15 | -2.55820 | 32.45274 | 20013 ft | 414 kts | 256° |
| 2026-05-08 00:15 | -2.56534 | 32.42473 | 20007 ft | 417 kts | 256° |
| 2026-05-08 00:15 | -2.57250 | 32.39664 | 20000 ft | 417 kts | 256° |
| 2026-05-08 00:15 | -2.57967 | 32.36859 | 19995 ft | 415 kts | 256° |
| 2026-05-08 00:16 | -2.58677 | 32.34065 | 19989 ft | 414 kts | 256° |
| 2026-05-08 00:16 | -2.59389 | 32.31281 | 19988 ft | 412 kts | 256° |
| 2026-05-08 00:16 | -2.60092 | 32.28510 | 19987 ft | 411 kts | 256° |
| 2026-05-08 00:16 | -2.60801 | 32.25739 | 19980 ft | 410 kts | 256° |
| 2026-05-08 00:17 | -2.61493 | 32.23016 | 19978 ft | 409 kts | 256° |
| 2026-05-08 00:17 | -2.62197 | 32.20262 | 19976 ft | 408 kts | 256° |
| 2026-05-08 00:17 | -2.62898 | 32.17503 | 19971 ft | 408 kts | 256° |
| 2026-05-08 00:17 | -2.63599 | 32.14754 | 19967 ft | 408 kts | 256° |
| 2026-05-08 00:18 | -2.64300 | 32.12000 | 19966 ft | 407 kts | 256° |
| 2026-05-08 00:18 | -2.64999 | 32.09258 | 19967 ft | 407 kts | 256° |
| 2026-05-08 00:18 | -2.65698 | 32.06511 | 19966 ft | 407 kts | 256° |
| 2026-05-08 00:18 | -2.66397 | 32.03764 | 19962 ft | 407 kts | 256° |
| 2026-05-08 00:19 | -2.67097 | 32.01023 | 19959 ft | 407 kts | 256° |
| 2026-05-08 00:19 | -2.67794 | 31.98275 | 19963 ft | 407 kts | 256° |
| 2026-05-08 00:19 | -2.68485 | 31.95570 | 19966 ft | 406 kts | 256° |
| 2026-05-08 00:19 | -2.69180 | 31.92832 | 19967 ft | 406 kts | 256° |
| 2026-05-08 00:20 | -2.69878 | 31.90094 | 19967 ft | 406 kts | 256° |
| 2026-05-08 00:20 | -2.70575 | 31.87355 | 19967 ft | 406 kts | 256° |
| 2026-05-08 00:20 | -2.71271 | 31.84616 | 19968 ft | 406 kts | 256° |
| 2026-05-08 00:20 | -2.71968 | 31.81880 | 19974 ft | 406 kts | 256° |
| 2026-05-08 00:21 | -2.72664 | 31.79141 | 19977 ft | 406 kts | 256° |
| 2026-05-08 00:21 | -2.73363 | 31.76404 | 19978 ft | 406 kts | 256° |
| 2026-05-08 00:21 | -2.74056 | 31.73666 | 19982 ft | 406 kts | 256° |
| 2026-05-08 00:21 | -2.74754 | 31.70931 | 19983 ft | 406 kts | 256° |
| 2026-05-08 00:22 | -2.75448 | 31.68192 | 19985 ft | 406 kts | 256° |
| 2026-05-08 00:22 | -2.76145 | 31.65461 | 19988 ft | 406 kts | 256° |
| 2026-05-08 00:22 | -2.76839 | 31.62727 | 19993 ft | 406 kts | 256° |
| 2026-05-08 00:22 | -2.77535 | 31.59991 | 19990 ft | 405 kts | 256° |
| 2026-05-08 00:23 | -2.78231 | 31.57254 | 19999 ft | 405 kts | 256° |
| 2026-05-08 00:23 | -2.78925 | 31.54517 | 19999 ft | 405 kts | 256° |
| 2026-05-08 00:23 | -2.79613 | 31.51818 | 20000 ft | 405 kts | 256° |
| 2026-05-08 00:23 | -2.80306 | 31.49081 | 20003 ft | 405 kts | 256° |
| 2026-05-08 00:24 | -2.81003 | 31.46349 | 20005 ft | 405 kts | 256° |
| 2026-05-08 00:24 | -2.81695 | 31.43616 | 20008 ft | 405 kts | 256° |
| 2026-05-08 00:24 | -2.82393 | 31.40878 | 20011 ft | 405 kts | 256° |
| 2026-05-08 00:24 | -2.83084 | 31.38149 | 20017 ft | 405 kts | 256° |
| 2026-05-08 00:25 | -2.83782 | 31.35408 | 20013 ft | 405 kts | 256° |
| 2026-05-08 00:25 | -2.84475 | 31.32677 | 20016 ft | 405 kts | 256° |
| 2026-05-08 00:25 | -2.85169 | 31.29942 | 20023 ft | 405 kts | 256° |
| 2026-05-08 00:25 | -2.85863 | 31.27210 | 20029 ft | 405 kts | 256° |
| 2026-05-08 00:26 | -2.86548 | 31.24512 | 20028 ft | 405 kts | 256° |
| 2026-05-08 00:26 | -2.87242 | 31.21784 | 20031 ft | 405 kts | 256° |
| 2026-05-08 00:26 | -2.87935 | 31.19043 | 20040 ft | 405 kts | 256° |
| 2026-05-08 00:26 | -2.88631 | 31.16312 | 20042 ft | 405 kts | 256° |
| 2026-05-08 00:27 | -2.89321 | 31.13583 | 20042 ft | 405 kts | 256° |
| 2026-05-08 00:27 | -2.90016 | 31.10852 | 20042 ft | 405 kts | 256° |
| 2026-05-08 00:27 | -2.90708 | 31.08117 | 20048 ft | 405 kts | 256° |
| 2026-05-08 00:27 | -2.91402 | 31.05386 | 20053 ft | 405 kts | 256° |
| 2026-05-08 00:28 | -2.92095 | 31.02657 | 20057 ft | 405 kts | 256° |
| 2026-05-08 00:28 | -2.92786 | 30.99926 | 20060 ft | 405 kts | 256° |
| 2026-05-08 00:28 | -2.93482 | 30.97189 | 20063 ft | 405 kts | 256° |
| 2026-05-08 00:28 | -2.94173 | 30.94456 | 20068 ft | 405 kts | 256° |
| 2026-05-08 00:29 | -2.94868 | 30.91725 | 20064 ft | 405 kts | 256° |
| 2026-05-08 00:29 | -2.95559 | 30.88990 | 20075 ft | 405 kts | 256° |
| 2026-05-08 00:29 | -2.96254 | 30.86260 | 20077 ft | 405 kts | 256° |
| 2026-05-08 00:29 | -2.96943 | 30.83531 | 20080 ft | 405 kts | 256° |
| 2026-05-08 00:30 | -2.97637 | 30.80799 | 20084 ft | 405 kts | 256° |
| 2026-05-08 00:30 | -2.98326 | 30.78072 | 20086 ft | 405 kts | 256° |
| 2026-05-08 00:30 | -2.99008 | 30.75340 | 20089 ft | 405 kts | 256° |
| 2026-05-08 00:30 | -2.99687 | 30.72605 | 20092 ft | 405 kts | 256° |
| 2026-05-08 00:31 | -3.00358 | 30.69906 | 20096 ft | 405 kts | 256° |
| 2026-05-08 00:31 | -3.01044 | 30.67175 | 20091 ft | 405 kts | 256° |
| 2026-05-08 00:31 | -3.01725 | 30.64443 | 20095 ft | 405 kts | 256° |
| 2026-05-08 00:31 | -3.02409 | 30.61707 | 20101 ft | 405 kts | 256° |
| 2026-05-08 00:32 | -3.03088 | 30.58973 | 20105 ft | 405 kts | 256° |
| 2026-05-08 00:32 | -3.03774 | 30.56235 | 20106 ft | 405 kts | 256° |
| 2026-05-08 00:32 | -3.04454 | 30.53503 | 20109 ft | 405 kts | 256° |
| 2026-05-08 00:32 | -3.05136 | 30.50771 | 20106 ft | 405 kts | 256° |
| 2026-05-08 00:33 | -3.05818 | 30.48039 | 20110 ft | 405 kts | 256° |
| 2026-05-08 00:33 | -3.06499 | 30.45304 | 20116 ft | 405 kts | 256° |
| 2026-05-08 00:33 | -3.07181 | 30.42572 | 20111 ft | 405 kts | 256° |
| 2026-05-08 00:33 | -3.07861 | 30.39840 | 20115 ft | 405 kts | 256° |
| 2026-05-08 00:34 | -3.08545 | 30.37106 | 20119 ft | 405 kts | 256° |
| 2026-05-08 00:34 | -3.09223 | 30.34373 | 20116 ft | 405 kts | 256° |
| 2026-05-08 00:34 | -3.09907 | 30.31641 | 20123 ft | 405 kts | 256° |
| 2026-05-08 00:34 | -3.10586 | 30.28905 | 20127 ft | 405 kts | 256° |
| 2026-05-08 00:35 | -3.11269 | 30.26172 | 20121 ft | 405 kts | 256° |
| 2026-05-08 00:35 | -3.11939 | 30.23475 | 20128 ft | 405 kts | 256° |
| 2026-05-08 00:35 | -3.12621 | 30.20746 | 20125 ft | 405 kts | 256° |
| 2026-05-08 00:35 | -3.13302 | 30.18009 | 20126 ft | 405 kts | 256° |
| 2026-05-08 00:36 | -3.13982 | 30.15279 | 20130 ft | 405 kts | 256° |
| 2026-05-08 00:36 | -3.14663 | 30.12546 | 20132 ft | 405 kts | 256° |
| 2026-05-08 00:36 | -3.15343 | 30.09812 | 20129 ft | 405 kts | 256° |
| 2026-05-08 00:36 | -3.16025 | 30.07075 | 20131 ft | 405 kts | 256° |
| 2026-05-08 00:37 | -3.16705 | 30.04341 | 20132 ft | 405 kts | 256° |
| 2026-05-08 00:37 | -3.17387 | 30.01607 | 20126 ft | 405 kts | 256° |
| 2026-05-08 00:37 | -3.18066 | 29.98871 | 20127 ft | 405 kts | 256° |
| 2026-05-08 00:38 | -3.19428 | 29.93396 | 20129 ft | 405 kts | 256° |
| 2026-05-08 00:38 | -3.20111 | 29.90661 | 20131 ft | 405 kts | 256° |
| 2026-05-08 00:38 | -3.20791 | 29.87921 | 20128 ft | 405 kts | 256° |
| 2026-05-08 00:38 | -3.21464 | 29.85219 | 20120 ft | 405 kts | 256° |
| 2026-05-08 00:39 | -3.22144 | 29.82483 | 20126 ft | 405 kts | 256° |
| 2026-05-08 00:39 | -3.22824 | 29.79746 | 20120 ft | 405 kts | 256° |
| 2026-05-08 00:39 | -3.23507 | 29.77007 | 20116 ft | 405 kts | 256° |
| 2026-05-08 00:39 | -3.24185 | 29.74269 | 20114 ft | 405 kts | 256° |
| 2026-05-08 00:40 | -3.24867 | 29.71535 | 20111 ft | 405 kts | 256° |
| 2026-05-08 00:40 | -3.25326 | 29.69683 | 20112 ft | 406 kts | 256° |
| 2026-05-08 00:40 | -3.26000 | 29.66978 | 20104 ft | 406 kts | 256° |
| 2026-05-08 00:40 | -3.26678 | 29.64241 | 20099 ft | 406 kts | 256° |
| 2026-05-08 00:41 | -3.27361 | 29.61502 | 20094 ft | 406 kts | 256° |
| 2026-05-08 00:41 | -3.28040 | 29.58758 | 20086 ft | 406 kts | 256° |
| 2026-05-08 00:41 | -3.28723 | 29.56017 | 20085 ft | 406 kts | 256° |
| 2026-05-08 00:41 | -3.29405 | 29.53269 | 20078 ft | 407 kts | 256° |
| 2026-05-08 00:42 | -3.30085 | 29.50521 | 20071 ft | 407 kts | 256° |
| 2026-05-08 00:42 | -3.30770 | 29.47774 | 20068 ft | 407 kts | 256° |
| 2026-05-08 00:42 | -3.31452 | 29.45027 | 20063 ft | 407 kts | 256° |
| 2026-05-08 00:42 | -3.32133 | 29.42279 | 20057 ft | 407 kts | 256° |
| 2026-05-08 00:43 | -3.32815 | 29.39530 | 20057 ft | 407 kts | 256° |
| 2026-05-08 00:43 | -3.33498 | 29.36784 | 20052 ft | 407 kts | 256° |
| 2026-05-08 00:43 | -3.34180 | 29.34032 | 20056 ft | 407 kts | 256° |
| 2026-05-08 00:43 | -3.34960 | 29.31307 | 20046 ft | 407 kts | 250° |
| 2026-05-08 00:44 | -3.35992 | 29.28670 | 20044 ft | 407 kts | 249° |
| 2026-05-08 00:44 | -3.36994 | 29.26015 | 20044 ft | 407 kts | 250° |
| 2026-05-08 00:44 | -3.37994 | 29.23359 | 20043 ft | 407 kts | 250° |
| 2026-05-08 00:44 | -3.38991 | 29.20741 | 20046 ft | 408 kts | 249° |
| 2026-05-08 00:45 | -3.40004 | 29.18085 | 20042 ft | 408 kts | 249° |
| 2026-05-08 00:45 | -3.41014 | 29.15437 | 20043 ft | 408 kts | 249° |
| 2026-05-08 00:45 | -3.42019 | 29.12781 | 20052 ft | 408 kts | 249° |
| 2026-05-08 00:45 | -3.43030 | 29.10124 | 20048 ft | 409 kts | 249° |
| 2026-05-08 00:46 | -3.44042 | 29.07461 | 20047 ft | 409 kts | 249° |
| 2026-05-08 00:46 | -3.45057 | 29.04792 | 20049 ft | 410 kts | 249° |
| 2026-05-08 00:46 | -3.46070 | 29.02127 | 20049 ft | 410 kts | 249° |
| 2026-05-08 00:46 | -3.47083 | 28.99460 | 20056 ft | 409 kts | 249° |
| 2026-05-08 00:47 | -3.48091 | 28.96804 | 20055 ft | 407 kts | 249° |
| 2026-05-08 00:47 | -3.49096 | 28.94163 | 20052 ft | 406 kts | 249° |
| 2026-05-08 00:47 | -3.50104 | 28.91527 | 20052 ft | 404 kts | 249° |
| 2026-05-08 00:47 | -3.51094 | 28.88935 | 20045 ft | 403 kts | 249° |
| 2026-05-08 00:48 | -3.52094 | 28.86315 | 20048 ft | 403 kts | 249° |
| 2026-05-08 00:48 | -3.53092 | 28.83697 | 20045 ft | 402 kts | 249° |
| 2026-05-08 00:48 | -3.54086 | 28.81088 | 20044 ft | 401 kts | 249° |
| 2026-05-08 00:48 | -3.55082 | 28.78478 | 20040 ft | 401 kts | 249° |
| 2026-05-08 00:49 | -3.56079 | 28.75868 | 20036 ft | 400 kts | 249° |
| 2026-05-08 00:49 | -3.57073 | 28.73263 | 20033 ft | 400 kts | 249° |
| 2026-05-08 00:49 | -3.58066 | 28.70659 | 20025 ft | 400 kts | 249° |
| 2026-05-08 00:49 | -3.59055 | 28.68057 | 20024 ft | 399 kts | 249° |
| 2026-05-08 00:50 | -3.60033 | 28.65494 | 20017 ft | 399 kts | 249° |
| 2026-05-08 00:50 | -3.61025 | 28.62902 | 20015 ft | 399 kts | 249° |
| 2026-05-08 00:50 | -3.62010 | 28.60309 | 20015 ft | 398 kts | 249° |
| 2026-05-08 00:50 | -3.62994 | 28.57716 | 20005 ft | 398 kts | 249° |
| 2026-05-08 00:51 | -3.63978 | 28.55130 | 20004 ft | 397 kts | 249° |
| 2026-05-08 00:51 | -3.64962 | 28.52545 | 20004 ft | 397 kts | 249° |
| 2026-05-08 00:51 | -3.65948 | 28.49956 | 19998 ft | 397 kts | 249° |
| 2026-05-08 00:51 | -3.66929 | 28.47376 | 19994 ft | 397 kts | 249° |
| 2026-05-08 00:52 | -3.67910 | 28.44793 | 19996 ft | 397 kts | 249° |
| 2026-05-08 00:52 | -3.68894 | 28.42212 | 19994 ft | 397 kts | 249° |
| 2026-05-08 00:52 | -3.69874 | 28.39628 | 19991 ft | 397 kts | 250° |
| 2026-05-08 00:52 | -3.70858 | 28.37044 | 19984 ft | 397 kts | 249° |
| 2026-05-08 00:53 | -3.71839 | 28.34462 | 19983 ft | 397 kts | 249° |
| 2026-05-08 00:53 | -3.72822 | 28.31879 | 19983 ft | 397 kts | 250° |
| 2026-05-08 00:53 | -3.73804 | 28.29293 | 19980 ft | 397 kts | 249° |
| 2026-05-08 00:53 | -3.74785 | 28.26714 | 19979 ft | 397 kts | 250° |
| 2026-05-08 00:54 | -3.75766 | 28.24131 | 19975 ft | 397 kts | 249° |
| 2026-05-08 00:54 | -3.76745 | 28.21550 | 19976 ft | 396 kts | 250° |
| 2026-05-08 00:54 | -3.77716 | 28.18999 | 19970 ft | 396 kts | 249° |
| 2026-05-08 00:54 | -3.78696 | 28.16419 | 19966 ft | 396 kts | 249° |
| 2026-05-08 00:55 | -3.79675 | 28.13845 | 19964 ft | 396 kts | 249° |
| 2026-05-08 00:55 | -3.80652 | 28.11264 | 19961 ft | 396 kts | 250° |
| 2026-05-08 00:55 | -3.81635 | 28.08686 | 19959 ft | 396 kts | 249° |
| 2026-05-08 00:55 | -3.82614 | 28.06103 | 19953 ft | 396 kts | 249° |
| 2026-05-08 00:56 | -3.83595 | 28.03521 | 19949 ft | 396 kts | 250° |
| 2026-05-08 00:56 | -3.84573 | 28.00944 | 19947 ft | 396 kts | 249° |
| 2026-05-08 00:56 | -3.85538 | 27.98399 | 19944 ft | 396 kts | 250° |
| 2026-05-08 00:56 | -3.86516 | 27.95828 | 19942 ft | 396 kts | 249° |
| 2026-05-08 00:57 | -3.87494 | 27.93249 | 19937 ft | 396 kts | 249° |
| 2026-05-08 00:57 | -3.88470 | 27.90677 | 19936 ft | 396 kts | 250° |
| 2026-05-08 00:57 | -3.89448 | 27.88098 | 19934 ft | 396 kts | 249° |
| 2026-05-08 00:57 | -3.90424 | 27.85526 | 19933 ft | 396 kts | 249° |
| 2026-05-08 00:58 | -3.91404 | 27.82951 | 19930 ft | 396 kts | 249° |
| 2026-05-08 00:58 | -3.92378 | 27.80374 | 19928 ft | 396 kts | 249° |
| 2026-05-08 00:58 | -3.93357 | 27.77800 | 19927 ft | 396 kts | 249° |
| 2026-05-08 00:58 | -3.94336 | 27.75216 | 19924 ft | 395 kts | 249° |
| 2026-05-08 00:59 | -3.95313 | 27.72642 | 19921 ft | 395 kts | 250° |
| 2026-05-08 00:59 | -3.96288 | 27.70067 | 19920 ft | 395 kts | 249° |
| 2026-05-08 00:59 | -3.97265 | 27.67490 | 19920 ft | 395 kts | 250° |
| 2026-05-08 00:59 | -3.98231 | 27.64945 | 19918 ft | 395 kts | 249° |
| 2026-05-08 01:00 | -3.99205 | 27.62373 | 19917 ft | 395 kts | 249° |
| 2026-05-08 01:00 | -4.00182 | 27.59800 | 19913 ft | 395 kts | 249° |
| 2026-05-08 01:00 | -4.01155 | 27.57226 | 19914 ft | 395 kts | 249° |
| 2026-05-08 01:00 | -4.02133 | 27.54650 | 19910 ft | 395 kts | 249° |
| 2026-05-08 01:01 | -4.03107 | 27.52077 | 19911 ft | 395 kts | 249° |
| 2026-05-08 01:01 | -4.04082 | 27.49505 | 19908 ft | 395 kts | 249° |
| 2026-05-08 01:01 | -4.05057 | 27.46933 | 19907 ft | 395 kts | 249° |
| 2026-05-08 01:01 | -4.06030 | 27.44360 | 19906 ft | 395 kts | 249° |
| 2026-05-08 01:02 | -4.07006 | 27.41789 | 19910 ft | 395 kts | 249° |
| 2026-05-08 01:02 | -4.07980 | 27.39210 | 19910 ft | 395 kts | 249° |
| 2026-05-08 01:02 | -4.08956 | 27.36642 | 19904 ft | 395 kts | 249° |
| 2026-05-08 01:02 | -4.09927 | 27.34068 | 19901 ft | 395 kts | 249° |
| 2026-05-08 01:03 | -4.10903 | 27.31497 | 19902 ft | 395 kts | 249° |
| 2026-05-08 01:03 | -4.11864 | 27.28953 | 19898 ft | 395 kts | 249° |
| 2026-05-08 01:03 | -4.12838 | 27.26384 | 19900 ft | 395 kts | 249° |
| 2026-05-08 01:03 | -4.13806 | 27.23809 | 19908 ft | 395 kts | 250° |
| 2026-05-08 01:04 | -4.14768 | 27.21227 | 19904 ft | 395 kts | 250° |
| 2026-05-08 01:04 | -4.15734 | 27.18649 | 19904 ft | 395 kts | 250° |
| 2026-05-08 01:04 | -4.16699 | 27.16075 | 19906 ft | 395 kts | 250° |
| 2026-05-08 01:04 | -4.17665 | 27.13505 | 19904 ft | 395 kts | 250° |
| 2026-05-08 01:05 | -4.18626 | 27.10931 | 19903 ft | 394 kts | 250° |
| 2026-05-08 01:05 | -4.19593 | 27.08357 | 19903 ft | 394 kts | 250° |
| 2026-05-08 01:05 | -4.20553 | 27.05787 | 19903 ft | 394 kts | 250° |
| 2026-05-08 01:05 | -4.21507 | 27.03247 | 19906 ft | 394 kts | 250° |
| 2026-05-08 01:06 | -4.22468 | 27.00675 | 19905 ft | 394 kts | 250° |
| 2026-05-08 01:06 | -4.23432 | 26.98105 | 19904 ft | 394 kts | 250° |
| 2026-05-08 01:06 | -4.24395 | 26.95531 | 19904 ft | 394 kts | 250° |
| 2026-05-08 01:06 | -4.25357 | 26.92961 | 19900 ft | 394 kts | 250° |
| 2026-05-08 01:07 | -4.26321 | 26.90389 | 19899 ft | 394 kts | 250° |
| 2026-05-08 01:07 | -4.27281 | 26.87819 | 19897 ft | 394 kts | 250° |
| 2026-05-08 01:07 | -4.28244 | 26.85253 | 19900 ft | 394 kts | 250° |
| 2026-05-08 01:07 | -4.29204 | 26.82681 | 19897 ft | 394 kts | 250° |
| 2026-05-08 01:08 | -4.30166 | 26.80116 | 19896 ft | 394 kts | 250° |
| 2026-05-08 01:08 | -4.31134 | 26.77544 | 19895 ft | 394 kts | 249° |
| 2026-05-08 01:08 | -4.32107 | 26.74977 | 19896 ft | 394 kts | 250° |
| 2026-05-08 01:08 | -4.33075 | 26.72412 | 19892 ft | 394 kts | 249° |
| 2026-05-08 01:09 | -4.34040 | 26.69846 | 19892 ft | 394 kts | 250° |
| 2026-05-08 01:09 | -4.35008 | 26.67280 | 19894 ft | 394 kts | 249° |
| 2026-05-08 01:09 | -4.35963 | 26.64743 | 19890 ft | 394 kts | 249° |
| 2026-05-08 01:09 | -4.36932 | 26.62179 | 19896 ft | 394 kts | 249° |
| 2026-05-08 01:10 | -4.37898 | 26.59610 | 19898 ft | 393 kts | 249° |
| 2026-05-08 01:10 | -4.38867 | 26.57046 | 19897 ft | 393 kts | 249° |
| 2026-05-08 01:10 | -4.39830 | 26.54480 | 19896 ft | 393 kts | 249° |
| 2026-05-08 01:10 | -4.40800 | 26.51913 | 19894 ft | 393 kts | 249° |
| 2026-05-08 01:11 | -4.41764 | 26.49348 | 19894 ft | 393 kts | 249° |
| 2026-05-08 01:11 | -4.42733 | 26.46781 | 19890 ft | 393 kts | 250° |
| 2026-05-08 01:11 | -4.43700 | 26.44213 | 19891 ft | 393 kts | 249° |
| 2026-05-08 01:11 | -4.44666 | 26.41644 | 19892 ft | 393 kts | 250° |
| 2026-05-08 01:12 | -4.45636 | 26.39073 | 19896 ft | 394 kts | 249° |
| 2026-05-08 01:12 | -4.46600 | 26.36506 | 19893 ft | 394 kts | 250° |
| 2026-05-08 01:12 | -4.47567 | 26.33943 | 19889 ft | 394 kts | 249° |
| 2026-05-08 01:12 | -4.48532 | 26.31372 | 19887 ft | 394 kts | 249° |
| 2026-05-08 01:13 | -4.49500 | 26.28809 | 19888 ft | 394 kts | 249° |
| 2026-05-08 01:13 | -4.50464 | 26.26238 | 19887 ft | 394 kts | 249° |
| 2026-05-08 01:13 | -4.51433 | 26.23671 | 19889 ft | 394 kts | 250° |
| 2026-05-08 01:13 | -4.52396 | 26.21106 | 19889 ft | 394 kts | 249° |
| 2026-05-08 01:14 | -4.53364 | 26.18535 | 19889 ft | 394 kts | 250° |
| 2026-05-08 01:14 | -4.54329 | 26.15969 | 19890 ft | 394 kts | 249° |
| 2026-05-08 01:14 | -4.55283 | 26.13434 | 19891 ft | 394 kts | 250° |
| 2026-05-08 01:14 | -4.56251 | 26.10865 | 19889 ft | 394 kts | 249° |
| 2026-05-08 01:15 | -4.57216 | 26.08294 | 19892 ft | 394 kts | 250° |
| 2026-05-08 01:15 | -4.58186 | 26.05723 | 19892 ft | 394 kts | 249° |
| 2026-05-08 01:15 | -4.59153 | 26.03144 | 19894 ft | 394 kts | 250° |
| 2026-05-08 01:15 | -4.60125 | 26.00567 | 19890 ft | 394 kts | 249° |
| 2026-05-08 01:16 | -4.61091 | 25.97991 | 19891 ft | 394 kts | 249° |
| 2026-05-08 01:16 | -4.62060 | 25.95419 | 19896 ft | 394 kts | 250° |
| 2026-05-08 01:16 | -4.63027 | 25.92842 | 19894 ft | 394 kts | 249° |
| 2026-05-08 01:16 | -4.63995 | 25.90269 | 19900 ft | 394 kts | 250° |
| 2026-05-08 01:17 | -4.64961 | 25.87699 | 19896 ft | 394 kts | 249° |
| 2026-05-08 01:17 | -4.65928 | 25.85122 | 19898 ft | 394 kts | 250° |
| 2026-05-08 01:17 | -4.66884 | 25.82583 | 19896 ft | 395 kts | 249° |
| 2026-05-08 01:17 | -4.67849 | 25.80009 | 19899 ft | 395 kts | 250° |
| 2026-05-08 01:18 | -4.68820 | 25.77430 | 19895 ft | 394 kts | 249° |
| 2026-05-08 01:18 | -4.69785 | 25.74853 | 19896 ft | 395 kts | 249° |
| 2026-05-08 01:18 | -4.70756 | 25.72274 | 19899 ft | 395 kts | 250° |
| 2026-05-08 01:18 | -4.71713 | 25.69722 | 19895 ft | 395 kts | 249° |
| 2026-05-08 01:19 | -4.72693 | 25.67114 | 19897 ft | 395 kts | 250° |
| 2026-05-08 01:19 | -4.73647 | 25.64573 | 19896 ft | 395 kts | 249° |
| 2026-05-08 01:19 | -4.74611 | 25.62001 | 19899 ft | 394 kts | 250° |
| 2026-05-08 01:19 | -4.75579 | 25.59428 | 19903 ft | 394 kts | 249° |
| 2026-05-08 01:20 | -4.76545 | 25.56847 | 19903 ft | 394 kts | 250° |
| 2026-05-08 01:20 | -4.77513 | 25.54274 | 19905 ft | 394 kts | 249° |
| 2026-05-08 01:20 | -4.78476 | 25.51699 | 19905 ft | 394 kts | 249° |
| 2026-05-08 01:20 | -4.79443 | 25.49128 | 19902 ft | 394 kts | 250° |
| 2026-05-08 01:21 | -4.80407 | 25.46554 | 19904 ft | 394 kts | 249° |
| 2026-05-08 01:21 | -4.81373 | 25.43981 | 19903 ft | 394 kts | 250° |
| 2026-05-08 01:21 | -4.82341 | 25.41399 | 19902 ft | 394 kts | 249° |
| 2026-05-08 01:21 | -4.83303 | 25.38829 | 19902 ft | 394 kts | 250° |
| 2026-05-08 01:22 | -4.84272 | 25.36250 | 19901 ft | 394 kts | 249° |
| 2026-05-08 01:22 | -4.85235 | 25.33676 | 19903 ft | 394 kts | 249° |
| 2026-05-08 01:22 | -4.86201 | 25.31104 | 19902 ft | 394 kts | 249° |
| 2026-05-08 01:22 | -4.87163 | 25.28530 | 19903 ft | 394 kts | 249° |
| 2026-05-08 01:23 | -4.88129 | 25.25958 | 19904 ft | 394 kts | 249° |
| 2026-05-08 01:23 | -4.89091 | 25.23385 | 19902 ft | 394 kts | 249° |
| 2026-05-08 01:23 | -4.90056 | 25.20813 | 19903 ft | 394 kts | 250° |
| 2026-05-08 01:23 | -4.91017 | 25.18244 | 19908 ft | 394 kts | 249° |
| 2026-05-08 01:24 | -4.91981 | 25.15669 | 19909 ft | 394 kts | 250° |
| 2026-05-08 01:24 | -4.92944 | 25.13101 | 19907 ft | 394 kts | 249° |
| 2026-05-08 01:24 | -4.93908 | 25.10523 | 19908 ft | 394 kts | 250° |
| 2026-05-08 01:24 | -4.94859 | 25.07987 | 19909 ft | 394 kts | 249° |
| 2026-05-08 01:25 | -4.95819 | 25.05414 | 19907 ft | 394 kts | 249° |
| 2026-05-08 01:25 | -4.96783 | 25.02847 | 19908 ft | 394 kts | 249° |
| 2026-05-08 01:25 | -4.97744 | 25.00272 | 19907 ft | 394 kts | 249° |
| 2026-05-08 01:25 | -4.98709 | 24.97698 | 19908 ft | 394 kts | 250° |
| 2026-05-08 01:26 | -4.99670 | 24.95126 | 19911 ft | 394 kts | 249° |
| 2026-05-08 01:26 | -5.00635 | 24.92548 | 19909 ft | 394 kts | 250° |
| 2026-05-08 01:26 | -5.01598 | 24.89974 | 19910 ft | 394 kts | 249° |
| 2026-05-08 01:26 | -5.02559 | 24.87399 | 19907 ft | 394 kts | 250° |
| 2026-05-08 01:27 | -5.03523 | 24.84828 | 19904 ft | 394 kts | 249° |
| 2026-05-08 01:27 | -5.04480 | 24.82259 | 19910 ft | 394 kts | 249° |
| 2026-05-08 01:27 | -5.05445 | 24.79687 | 19912 ft | 394 kts | 249° |
| 2026-05-08 01:27 | -5.06392 | 24.77144 | 19906 ft | 393 kts | 249° |
| 2026-05-08 01:28 | -5.07355 | 24.74575 | 19909 ft | 393 kts | 250° |
| 2026-05-08 01:28 | -5.08315 | 24.72002 | 19904 ft | 393 kts | 249° |
| 2026-05-08 01:28 | -5.09276 | 24.69430 | 19906 ft | 393 kts | 250° |
| 2026-05-08 01:28 | -5.10238 | 24.66855 | 19910 ft | 393 kts | 249° |
| 2026-05-08 01:29 | -5.11196 | 24.64288 | 19908 ft | 393 kts | 250° |
| 2026-05-08 01:29 | -5.12156 | 24.61720 | 19906 ft | 393 kts | 249° |
| 2026-05-08 01:29 | -5.12791 | 24.60019 | 19907 ft | 393 kts | 250° |
| 2026-05-08 01:29 | -5.13752 | 24.57445 | 19910 ft | 393 kts | 249° |
| 2026-05-08 01:30 | -5.14709 | 24.54879 | 19908 ft | 393 kts | 250° |
| 2026-05-08 01:30 | -5.15668 | 24.52312 | 19905 ft | 393 kts | 249° |
| 2026-05-08 01:30 | -5.16625 | 24.49744 | 19909 ft | 393 kts | 249° |
| 2026-05-08 01:30 | -5.17585 | 24.47178 | 19906 ft | 393 kts | 249° |
| 2026-05-08 01:31 | -5.18541 | 24.44608 | 19910 ft | 393 kts | 249° |
| 2026-05-08 01:31 | -5.19501 | 24.42043 | 19907 ft | 393 kts | 249° |
| 2026-05-08 01:31 | -5.20457 | 24.39473 | 19910 ft | 393 kts | 249° |
| 2026-05-08 01:31 | -5.21415 | 24.36908 | 19906 ft | 393 kts | 250° |
| 2026-05-08 01:32 | -5.22358 | 24.34376 | 19909 ft | 393 kts | 249° |
| 2026-05-08 01:32 | -5.23315 | 24.31811 | 19906 ft | 393 kts | 250° |
| 2026-05-08 01:32 | -5.24272 | 24.29245 | 19904 ft | 393 kts | 249° |
| 2026-05-08 01:32 | -5.25228 | 24.26678 | 19904 ft | 393 kts | 250° |
| 2026-05-08 01:33 | -5.26185 | 24.24112 | 19907 ft | 393 kts | 249° |
| 2026-05-08 01:33 | -5.27149 | 24.21545 | 19909 ft | 392 kts | 248° |
| 2026-05-08 01:33 | -5.28572 | 24.19230 | 19901 ft | 392 kts | 227° |
| 2026-05-08 01:33 | -5.30681 | 24.17514 | 19894 ft | 391 kts | 208° |
| 2026-05-08 01:34 | -5.33237 | 24.16607 | 19895 ft | 390 kts | 189° |
| 2026-05-08 01:34 | -5.35936 | 24.16312 | 19902 ft | 390 kts | 185° |
| 2026-05-08 01:34 | -5.38633 | 24.16073 | 19907 ft | 389 kts | 184° |
| 2026-05-08 01:34 | -5.41334 | 24.15852 | 19905 ft | 389 kts | 185° |
| 2026-05-08 01:35 | -5.44033 | 24.15598 | 19905 ft | 390 kts | 185° |
| 2026-05-08 01:35 | -5.46734 | 24.15335 | 19914 ft | 390 kts | 185° |
| 2026-05-08 01:35 | -5.49433 | 24.15083 | 19916 ft | 390 kts | 185° |
| 2026-05-08 01:35 | -5.52130 | 24.14837 | 19913 ft | 390 kts | 185° |
| 2026-05-08 01:36 | -5.54832 | 24.14589 | 19916 ft | 390 kts | 185° |
| 2026-05-08 01:36 | -5.57531 | 24.14334 | 19917 ft | 390 kts | 185° |
| 2026-05-08 01:36 | -5.60231 | 24.14084 | 19917 ft | 390 kts | 185° |
| 2026-05-08 01:36 | -5.62927 | 24.13831 | 19921 ft | 390 kts | 185° |
| 2026-05-08 01:37 | -5.65628 | 24.13584 | 19920 ft | 390 kts | 185° |
| 2026-05-08 01:37 | -5.68327 | 24.13330 | 19919 ft | 390 kts | 185° |
| 2026-05-08 01:37 | -5.71027 | 24.13081 | 19921 ft | 390 kts | 185° |
| 2026-05-08 01:37 | -5.73693 | 24.12832 | 19925 ft | 390 kts | 185° |
| 2026-05-08 01:38 | -5.76391 | 24.12581 | 19925 ft | 390 kts | 185° |
| 2026-05-08 01:38 | -5.79091 | 24.12331 | 19924 ft | 390 kts | 185° |
| 2026-05-08 01:38 | -5.81794 | 24.12078 | 19922 ft | 390 kts | 185° |
| 2026-05-08 01:38 | -5.84495 | 24.11828 | 19925 ft | 390 kts | 185° |
| 2026-05-08 01:39 | -5.87195 | 24.11575 | 19926 ft | 390 kts | 185° |
| 2026-05-08 01:39 | -5.89895 | 24.11327 | 19927 ft | 390 kts | 185° |
| 2026-05-08 01:39 | -5.92596 | 24.11072 | 19928 ft | 390 kts | 185° |
| 2026-05-08 01:39 | -5.95300 | 24.10823 | 19925 ft | 390 kts | 185° |
| 2026-05-08 01:40 | -5.98004 | 24.10570 | 19928 ft | 390 kts | 185° |
| 2026-05-08 01:40 | -6.00702 | 24.10320 | 19917 ft | 390 kts | 185° |
| 2026-05-08 01:40 | -6.03402 | 24.10068 | 19926 ft | 390 kts | 185° |
| 2026-05-08 01:40 | -6.06101 | 24.09816 | 19926 ft | 390 kts | 185° |
| 2026-05-08 01:41 | -6.08798 | 24.09567 | 19922 ft | 390 kts | 185° |
| 2026-05-08 01:41 | -6.11500 | 24.09313 | 19921 ft | 390 kts | 185° |
| 2026-05-08 01:41 | -6.14197 | 24.09064 | 19927 ft | 390 kts | 185° |
| 2026-05-08 01:41 | -6.16896 | 24.08810 | 19927 ft | 390 kts | 185° |
| 2026-05-08 01:42 | -6.19596 | 24.08562 | 19925 ft | 390 kts | 185° |
| 2026-05-08 01:42 | -6.22298 | 24.08308 | 19926 ft | 390 kts | 185° |
| 2026-05-08 01:42 | -6.24997 | 24.08057 | 19926 ft | 390 kts | 185° |
| 2026-05-08 01:42 | -6.27696 | 24.07806 | 19930 ft | 390 kts | 185° |
| 2026-05-08 01:43 | -6.30402 | 24.07553 | 19928 ft | 390 kts | 185° |
| 2026-05-08 01:43 | -6.33104 | 24.07303 | 19926 ft | 390 kts | 185° |
| 2026-05-08 01:43 | -6.35770 | 24.07052 | 19927 ft | 390 kts | 185° |
| 2026-05-08 01:43 | -6.38470 | 24.06803 | 19925 ft | 390 kts | 185° |
| 2026-05-08 01:44 | -6.41173 | 24.06548 | 19714 ft | 390 kts | 185° |
| 2026-05-08 01:44 | -6.43837 | 24.06301 | 19362 ft | 378 kts | 185° |
| 2026-05-08 01:44 | -6.46397 | 24.06060 | 19205 ft | 362 kts | 185° |
| 2026-05-08 01:44 | -6.48863 | 24.05832 | 19056 ft | 350 kts | 185° |
| 2026-05-08 01:45 | -6.51262 | 24.05608 | 18811 ft | 343 kts | 185° |
| 2026-05-08 01:45 | -6.53631 | 24.05386 | 18460 ft | 341 kts | 185° |
| 2026-05-08 01:45 | -6.56001 | 24.05167 | 17986 ft | 343 kts | 185° |
| 2026-05-08 01:45 | -6.58384 | 24.04943 | 17475 ft | 344 kts | 185° |
| 2026-05-08 01:46 | -6.60765 | 24.04722 | 17000 ft | 344 kts | 185° |
| 2026-05-08 01:46 | -6.63149 | 24.04495 | 16542 ft | 343 kts | 185° |
| 2026-05-08 01:46 | -6.65437 | 24.03865 | 16085 ft | 344 kts | 207° |
| 2026-05-08 01:46 | -6.67338 | 24.02421 | 15635 ft | 345 kts | 227° |
| 2026-05-08 01:47 | -6.68568 | 24.00355 | 15181 ft | 347 kts | 249° |
| 2026-05-08 01:47 | -6.68946 | 23.97970 | 14725 ft | 348 kts | 271° |
| 2026-05-08 01:47 | -6.68416 | 23.95612 | 14266 ft | 348 kts | 294° |
| 2026-05-08 01:48 | -6.65216 | 23.92230 | 13349 ft | 330 kts | 327° |
| 2026-05-08 01:48 | -6.63336 | 23.90969 | 12914 ft | 320 kts | 328° |
| 2026-05-08 01:48 | -6.61480 | 23.89779 | 12496 ft | 313 kts | 328° |
| 2026-05-08 01:48 | -6.59686 | 23.88581 | 12088 ft | 307 kts | 327° |
| 2026-05-08 01:49 | -6.57927 | 23.87396 | 11689 ft | 302 kts | 327° |
| 2026-05-08 01:49 | -6.56191 | 23.86226 | 11289 ft | 299 kts | 328° |
| 2026-05-08 01:49 | -6.54467 | 23.85080 | 10898 ft | 296 kts | 328° |
| 2026-05-08 01:49 | -6.52748 | 23.83931 | 10391 ft | 298 kts | 328° |
| 2026-05-08 01:50 | -6.51026 | 23.82781 | 9968 ft | 296 kts | 328° |
| 2026-05-08 01:50 | -6.49316 | 23.81633 | 9554 ft | 294 kts | 328° |
| 2026-05-08 01:50 | -6.47618 | 23.80502 | 9161 ft | 291 kts | 328° |
| 2026-05-08 01:50 | -6.45938 | 23.79378 | 8770 ft | 289 kts | 328° |
| 2026-05-08 01:51 | -6.44267 | 23.78257 | 8392 ft | 288 kts | 327° |
| 2026-05-08 01:51 | -6.42617 | 23.77158 | 8017 ft | 287 kts | 328° |
| 2026-05-08 01:51 | -6.40966 | 23.76053 | 7643 ft | 281 kts | 327° |
| 2026-05-08 01:51 | -6.39364 | 23.74986 | 7273 ft | 273 kts | 327° |
| 2026-05-08 01:52 | -6.37806 | 23.73940 | 6919 ft | 266 kts | 327° |
| 2026-05-08 01:52 | -6.36275 | 23.72921 | 6570 ft | 261 kts | 327° |
| 2026-05-08 01:52 | -6.34773 | 23.71914 | 6219 ft | 258 kts | 327° |
| 2026-05-08 01:52 | -6.33288 | 23.70923 | 5871 ft | 252 kts | 327° |
| 2026-05-08 01:53 | -6.31855 | 23.69968 | 5537 ft | 243 kts | 327° |
| 2026-05-08 01:53 | -6.30462 | 23.69035 | 5224 ft | 238 kts | 327° |
| 2026-05-08 01:53 | -6.29097 | 23.68126 | 4908 ft | 233 kts | 326° |
| 2026-05-08 01:53 | -6.27756 | 23.67228 | 4600 ft | 229 kts | 326° |
| 2026-05-08 01:54 | -6.26500 | 23.66302 | 4291 ft | 220 kts | 312° |
| 2026-05-08 01:54 | -6.25953 | 23.64984 | 4031 ft | 195 kts | 281° |
| 2026-05-08 01:54 | -6.25595 | 23.63776 | 3809 ft | 169 kts | 281° |
| 2026-05-08 01:54 | -6.25378 | 23.62821 | 3716 ft | 125 kts | 307° |
| 2026-05-08 01:55 | -6.24694 | 23.62383 | 3648 ft | 114 kts | 329° |
| 2026-05-08 01:55 | -6.24011 | 23.62008 | 3707 ft | 115 kts | 335° |
| 2026-05-08 01:55 | -6.23247 | 23.61654 | 3746 ft | 122 kts | 332° |
| 2026-05-08 01:55 | -6.22462 | 23.61300 | 3747 ft | 125 kts | 335° |
| 2026-05-08 01:56 | -6.21665 | 23.60935 | 3747 ft | 127 kts | 335° |
| 2026-05-08 01:56 | -6.20844 | 23.60572 | 3656 ft | 131 kts | 334° |
| 2026-05-08 01:56 | -6.20032 | 23.60210 | 3479 ft | 125 kts | 335° |
| 2026-05-08 01:56 | -6.19244 | 23.59855 | 3311 ft | 124 kts | 334° |
| 2026-05-08 01:57 | -6.18455 | 23.59510 | 3144 ft | 124 kts | 333° |
| 2026-05-08 01:57 | -6.17668 | 23.59156 | 2977 ft | 123 kts | 335° |
| 2026-05-08 01:57 | -6.16887 | 23.58808 | 2824 ft | 123 kts | 335° |
| 2026-05-08 01:57 | -6.16106 | 23.58459 | 2656 ft | 123 kts | 335° |
| 2026-05-08 01:58 | -6.15336 | 23.58122 | 2561 ft | 117 kts | 336° |
| 2026-05-08 01:58 | -6.14588 | 23.57797 | 2471 ft | 118 kts | 337° |
| 2026-05-08 01:58 | -6.13834 | 23.57481 | 2390 ft | 120 kts | 338° |
| 2026-05-08 01:58 | -6.13048 | 23.57215 | 2296 ft | 116 kts | 342° |
| 2026-05-08 01:59 | -6.12362 | 23.56967 | 2204 ft | 88 kts | 346° |
| 2026-05-08 01:59 | -6.12075 | 23.56892 | 2205 ft | 14 kts | 354° |
| 2026-05-08 01:59 | -6.12022 | 23.56876 | 2205 ft | 4 kts | 255° |
| 2026-05-08 01:59 | -6.12076 | 23.56885 | 2205 ft | 13 kts | 161° |
| 2026-05-08 02:00 | -6.12175 | 23.56918 | 2205 ft | 17 kts | 161° |
| 2026-05-08 02:00 | -6.12306 | 23.56962 | 2204 ft | 22 kts | 161° |
| 2026-05-08 02:00 | -6.12452 | 23.57012 | 2207 ft | 17 kts | 161° |
| 2026-05-08 02:00 | -6.12525 | 23.57036 | 2205 ft | 11 kts | 161° |
| 2026-05-08 02:01 | -6.12566 | 23.57083 | 2206 ft | 5 kts | 77° |
| 2026-05-08 02:01 | -6.12556 | 23.57114 | 2207 ft | 5 kts | 71° |
| 2026-05-08 02:01 | -6.12541 | 23.57141 | 2207 ft | 4 kts | 38° |
| 2026-05-08 02:01 | -6.12517 | 23.57148 | 2208 ft | 3 kts | 41° |
| 2026-05-08 02:02 | -6.12512 | 23.57165 | 2208 ft | 2 kts | 91° |
| 2026-05-08 02:02 | -6.12509 | 23.57177 | 2209 ft | 0 kts | 69° |